Watkins Glen, New York
Current Conditions -  °F | °C
As of 1:39 PM on Monday 26 Jan 2015 (Local Time) from KELM Reporting Station
Moderate Snow Moderate Snow  
Wind Chill:   Ceiling: 1300
Heat Index: 19°   Visibility: 0.5mi
Dew Point: 15°   Wind: 8mph
Humidity: 85%   Direction: 50°NE
Pressure: 29.85"   Gusts: NA
Location:  42.38°N, 76.87°W
Report Text: KELM 261839Z 05007KT 1/2SM SN FZFG VV013 M07/M09 A2985 RMK AO2 P0000 T10721094 RVRNO
Loading
Personal Weather Stations






























Interactive Weather Map New forecast layout! Learn more

10-Day Weather Forecast

Advertisements
Track Severe Weather on mobile